sensor_id;sensor_type;location;lat;lon;timestamp;P1;durP1;ratioP1;P2;durP2;ratioP2
41921;SDS011;27609;51.002;5.354;2023-05-01T00:00:10;8.20;;;2.53;;
41921;SDS011;27609;51.002;5.354;2023-05-01T00:02:36;6.55;;;2.38;;
41921;SDS011;27609;51.002;5.354;2023-05-01T00:05:02;4.63;;;2.35;;
41921;SDS011;27609;51.002;5.354;2023-05-01T00:07:28;5.47;;;2.95;;
41921;SDS011;27609;51.002;5.354;2023-05-01T00:09:58;4.65;;;2.50;;
41921;SDS011;27609;51.002;5.354;2023-05-01T00:12:24;4.93;;;2.20;;
41921;SDS011;27609;51.002;5.354;2023-05-01T00:14:50;2.88;;;2.60;;
41921;SDS011;27609;51.002;5.354;2023-05-01T00:17:17;4.70;;;2.30;;
41921;SDS011;27609;51.002;5.354;2023-05-01T00:19:43;5.18;;;3.22;;
41921;SDS011;27609;51.002;5.354;2023-05-01T00:22:08;6.68;;;2.55;;
41921;SDS011;27609;51.002;5.354;2023-05-01T00:24:34;3.65;;;2.40;;
41921;SDS011;27609;51.002;5.354;2023-05-01T00:27:00;4.68;;;2.22;;
41921;SDS011;27609;51.002;5.354;2023-05-01T00:29:25;5.97;;;2.38;;
41921;SDS011;27609;51.002;5.354;2023-05-01T00:31:52;7.22;;;2.65;;
41921;SDS011;27609;51.002;5.354;2023-05-01T00:34:18;4.82;;;2.45;;
41921;SDS011;27609;51.002;5.354;2023-05-01T00:36:44;9.57;;;2.88;;
41921;SDS011;27609;51.002;5.354;2023-05-01T00:39:10;5.72;;;2.45;;
41921;SDS011;27609;51.002;5.354;2023-05-01T00:41:36;3.80;;;2.55;;
41921;SDS011;27609;51.002;5.354;2023-05-01T00:44:01;7.90;;;2.70;;
41921;SDS011;27609;51.002;5.354;2023-05-01T00:46:27;6.65;;;2.83;;
41921;SDS011;27609;51.002;5.354;2023-05-01T00:48:54;5.10;;;2.38;;
41921;SDS011;27609;51.002;5.354;2023-05-01T00:51:21;3.70;;;2.15;;
41921;SDS011;27609;51.002;5.354;2023-05-01T00:53:47;4.80;;;2.38;;
41921;SDS011;27609;51.002;5.354;2023-05-01T00:56:14;4.30;;;2.47;;
41921;SDS011;27609;51.002;5.354;2023-05-01T00:58:40;7.32;;;2.30;;
41921;SDS011;27609;51.002;5.354;2023-05-01T01:01:06;9.30;;;2.63;;
41921;SDS011;27609;51.002;5.354;2023-05-01T01:03:35;4.22;;;2.38;;
41921;SDS011;27609;51.002;5.354;2023-05-01T01:08:40;5.50;;;2.58;;
41921;SDS011;27609;51.002;5.354;2023-05-01T01:14:10;5.90;;;2.35;;
41921;SDS011;27609;51.002;5.354;2023-05-01T01:22:35;6.68;;;2.33;;
41921;SDS011;27609;51.002;5.354;2023-05-01T01:25:09;5.55;;;2.30;;
41921;SDS011;27609;51.002;5.354;2023-05-01T01:27:57;3.63;;;2.25;;
41921;SDS011;27609;51.002;5.354;2023-05-01T01:36:09;4.88;;;2.30;;
41921;SDS011;27609;51.002;5.354;2023-05-01T01:38:41;3.28;;;2.10;;
41921;SDS011;27609;51.002;5.354;2023-05-01T01:43:45;5.18;;;1.95;;
41921;SDS011;27609;51.002;5.354;2023-05-01T01:46:16;4.43;;;2.47;;
41921;SDS011;27609;51.002;5.354;2023-05-01T01:48:45;6.40;;;2.95;;
41921;SDS011;27609;51.002;5.354;2023-05-01T01:51:15;6.13;;;2.72;;
41921;SDS011;27609;51.002;5.354;2023-05-01T01:53:45;4.28;;;2.60;;
41921;SDS011;27609;51.002;5.354;2023-05-01T01:56:17;4.30;;;2.33;;
41921;SDS011;27609;51.002;5.354;2023-05-01T01:58:46;8.95;;;3.05;;
41921;SDS011;27609;51.002;5.354;2023-05-01T02:01:13;8.82;;;2.45;;
41921;SDS011;27609;51.002;5.354;2023-05-01T02:03:41;10.82;;;3.08;;
41921;SDS011;27609;51.002;5.354;2023-05-01T02:06:08;8.27;;;2.50;;
41921;SDS011;27609;51.002;5.354;2023-05-01T02:08:37;5.93;;;2.70;;
41921;SDS011;27609;51.002;5.354;2023-05-01T02:11:03;5.43;;;2.45;;
41921;SDS011;27609;51.002;5.354;2023-05-01T02:13:30;7.88;;;3.13;;
41921;SDS011;27609;51.002;5.354;2023-05-01T02:15:57;4.47;;;2.60;;
41921;SDS011;27609;51.002;5.354;2023-05-01T02:18:25;6.40;;;2.97;;
41921;SDS011;27609;51.002;5.354;2023-05-01T02:20:52;6.15;;;2.65;;
41921;SDS011;27609;51.002;5.354;2023-05-01T02:23:20;6.65;;;2.50;;
41921;SDS011;27609;51.002;5.354;2023-05-01T02:25:47;3.22;;;2.50;;
41921;SDS011;27609;51.002;5.354;2023-05-01T02:28:16;5.65;;;2.55;;
41921;SDS011;27609;51.002;5.354;2023-05-01T02:30:46;3.20;;;2.38;;
41921;SDS011;27609;51.002;5.354;2023-05-01T02:33:12;3.45;;;2.40;;
41921;SDS011;27609;51.002;5.354;2023-05-01T02:35:41;3.80;;;2.45;;
41921;SDS011;27609;51.002;5.354;2023-05-01T02:38:14;7.70;;;2.28;;
41921;SDS011;27609;51.002;5.354;2023-05-01T02:40:41;6.00;;;2.63;;
41921;SDS011;27609;51.002;5.354;2023-05-01T02:43:11;5.72;;;2.80;;
41921;SDS011;27609;51.002;5.354;2023-05-01T02:45:40;8.85;;;2.65;;
41921;SDS011;27609;51.002;5.354;2023-05-01T02:48:08;4.32;;;2.35;;
41921;SDS011;27609;51.002;5.354;2023-05-01T02:50:36;6.18;;;2.60;;
41921;SDS011;27609;51.002;5.354;2023-05-01T02:53:04;3.95;;;2.47;;
41921;SDS011;27609;51.002;5.354;2023-05-01T02:55:31;6.18;;;3.00;;
41921;SDS011;27609;51.002;5.354;2023-05-01T02:57:57;2.92;;;2.22;;
41921;SDS011;27609;51.002;5.354;2023-05-01T03:00:24;4.55;;;2.45;;
41921;SDS011;27609;51.002;5.354;2023-05-01T03:02:50;4.43;;;2.78;;
41921;SDS011;27609;51.002;5.354;2023-05-01T03:05:16;4.13;;;2.58;;
41921;SDS011;27609;51.002;5.354;2023-05-01T03:07:44;7.15;;;2.80;;
41921;SDS011;27609;51.002;5.354;2023-05-01T03:10:11;3.83;;;2.70;;
41921;SDS011;27609;51.002;5.354;2023-05-01T03:12:37;5.15;;;2.60;;
41921;SDS011;27609;51.002;5.354;2023-05-01T03:15:03;5.85;;;2.80;;
41921;SDS011;27609;51.002;5.354;2023-05-01T03:17:29;3.13;;;2.40;;
41921;SDS011;27609;51.002;5.354;2023-05-01T03:19:55;2.55;;;2.20;;
41921;SDS011;27609;51.002;5.354;2023-05-01T03:22:21;4.78;;;3.17;;
41921;SDS011;27609;51.002;5.354;2023-05-01T03:24:46;6.50;;;2.72;;
41921;SDS011;27609;51.002;5.354;2023-05-01T03:27:12;5.72;;;2.63;;
41921;SDS011;27609;51.002;5.354;2023-05-01T03:29:38;4.97;;;2.70;;
41921;SDS011;27609;51.002;5.354;2023-05-01T03:32:04;6.47;;;2.90;;
41921;SDS011;27609;51.002;5.354;2023-05-01T03:34:30;5.22;;;2.50;;
41921;SDS011;27609;51.002;5.354;2023-05-01T03:36:56;7.50;;;2.60;;
41921;SDS011;27609;51.002;5.354;2023-05-01T03:39:21;8.15;;;2.95;;
41921;SDS011;27609;51.002;5.354;2023-05-01T03:41:47;3.25;;;2.65;;
41921;SDS011;27609;51.002;5.354;2023-05-01T03:44:12;4.35;;;2.53;;
41921;SDS011;27609;51.002;5.354;2023-05-01T03:46:38;4.40;;;2.80;;
41921;SDS011;27609;51.002;5.354;2023-05-01T03:49:04;9.40;;;2.55;;
41921;SDS011;27609;51.002;5.354;2023-05-01T03:51:30;6.95;;;2.80;;
41921;SDS011;27609;51.002;5.354;2023-05-01T03:53:56;8.90;;;3.10;;
41921;SDS011;27609;51.002;5.354;2023-05-01T03:56:26;5.43;;;2.83;;
41921;SDS011;27609;51.002;5.354;2023-05-01T03:58:52;4.90;;;2.85;;
41921;SDS011;27609;51.002;5.354;2023-05-01T04:01:18;5.55;;;3.10;;
41921;SDS011;27609;51.002;5.354;2023-05-01T04:03:44;5.80;;;3.08;;
41921;SDS011;27609;51.002;5.354;2023-05-01T04:06:10;5.93;;;2.83;;
41921;SDS011;27609;51.002;5.354;2023-05-01T04:08:36;4.70;;;2.53;;
41921;SDS011;27609;51.002;5.354;2023-05-01T04:11:02;9.02;;;3.33;;
41921;SDS011;27609;51.002;5.354;2023-05-01T04:13:27;8.13;;;3.10;;
41921;SDS011;27609;51.002;5.354;2023-05-01T04:15:53;6.03;;;2.67;;
41921;SDS011;27609;51.002;5.354;2023-05-01T04:18:21;5.97;;;3.25;;
41921;SDS011;27609;51.002;5.354;2023-05-01T04:20:47;5.70;;;3.13;;
41921;SDS011;27609;51.002;5.354;2023-05-01T04:23:12;5.50;;;3.53;;
41921;SDS011;27609;51.002;5.354;2023-05-01T04:25:38;4.30;;;2.70;;
41921;SDS011;27609;51.002;5.354;2023-05-01T04:28:04;6.22;;;3.33;;
41921;SDS011;27609;51.002;5.354;2023-05-01T04:30:30;5.78;;;3.20;;
41921;SDS011;27609;51.002;5.354;2023-05-01T04:32:56;5.20;;;3.08;;
41921;SDS011;27609;51.002;5.354;2023-05-01T04:35:22;5.15;;;3.20;;
41921;SDS011;27609;51.002;5.354;2023-05-01T04:37:50;5.03;;;3.30;;
41921;SDS011;27609;51.002;5.354;2023-05-01T04:40:15;7.40;;;3.30;;
41921;SDS011;27609;51.002;5.354;2023-05-01T04:42:41;5.97;;;2.72;;
41921;SDS011;27609;51.002;5.354;2023-05-01T04:45:07;5.07;;;3.08;;
41921;SDS011;27609;51.002;5.354;2023-05-01T04:47:33;7.05;;;3.70;;
41921;SDS011;27609;51.002;5.354;2023-05-01T04:49:59;6.20;;;3.13;;
41921;SDS011;27609;51.002;5.354;2023-05-01T04:52:25;7.57;;;3.03;;
41921;SDS011;27609;51.002;5.354;2023-05-01T04:54:50;11.10;;;3.28;;
41921;SDS011;27609;51.002;5.354;2023-05-01T04:57:16;7.68;;;3.03;;
41921;SDS011;27609;51.002;5.354;2023-05-01T04:59:42;10.48;;;3.58;;
41921;SDS011;27609;51.002;5.354;2023-05-01T05:02:08;5.32;;;3.00;;
41921;SDS011;27609;51.002;5.354;2023-05-01T05:04:33;7.65;;;3.15;;
41921;SDS011;27609;51.002;5.354;2023-05-01T05:06:59;7.32;;;3.58;;
41921;SDS011;27609;51.002;5.354;2023-05-01T05:09:25;7.55;;;3.50;;
41921;SDS011;27609;51.002;5.354;2023-05-01T05:11:50;5.05;;;3.53;;
41921;SDS011;27609;51.002;5.354;2023-05-01T05:14:16;9.60;;;3.47;;
41921;SDS011;27609;51.002;5.354;2023-05-01T05:16:42;9.13;;;3.47;;
41921;SDS011;27609;51.002;5.354;2023-05-01T05:19:07;3.80;;;3.15;;
41921;SDS011;27609;51.002;5.354;2023-05-01T05:21:33;7.68;;;3.53;;
41921;SDS011;27609;51.002;5.354;2023-05-01T05:23:59;5.60;;;3.33;;
41921;SDS011;27609;51.002;5.354;2023-05-01T05:26:25;8.18;;;3.70;;
41921;SDS011;27609;51.002;5.354;2023-05-01T05:28:51;6.63;;;3.58;;
41921;SDS011;27609;51.002;5.354;2023-05-01T05:31:16;8.50;;;3.60;;
41921;SDS011;27609;51.002;5.354;2023-05-01T05:33:42;9.77;;;3.60;;
41921;SDS011;27609;51.002;5.354;2023-05-01T05:36:08;8.02;;;3.60;;
41921;SDS011;27609;51.002;5.354;2023-05-01T05:38:35;6.78;;;3.72;;
41921;SDS011;27609;51.002;5.354;2023-05-01T05:41:00;11.90;;;4.43;;
41921;SDS011;27609;51.002;5.354;2023-05-01T05:43:26;9.82;;;4.13;;
41921;SDS011;27609;51.002;5.354;2023-05-01T05:45:58;6.90;;;3.70;;
41921;SDS011;27609;51.002;5.354;2023-05-01T05:48:24;10.93;;;3.40;;
41921;SDS011;27609;51.002;5.354;2023-05-01T05:50:51;5.85;;;3.63;;
41921;SDS011;27609;51.002;5.354;2023-05-01T05:53:19;6.75;;;3.70;;
41921;SDS011;27609;51.002;5.354;2023-05-01T05:55:46;5.50;;;3.90;;
41921;SDS011;27609;51.002;5.354;2023-05-01T05:58:12;5.93;;;4.30;;
41921;SDS011;27609;51.002;5.354;2023-05-01T06:00:44;5.20;;;4.18;;
41921;SDS011;27609;51.002;5.354;2023-05-01T06:03:10;6.82;;;4.47;;
41921;SDS011;27609;51.002;5.354;2023-05-01T06:05:36;7.05;;;4.05;;
41921;SDS011;27609;51.002;5.354;2023-05-01T06:08:02;7.07;;;4.18;;
41921;SDS011;27609;51.002;5.354;2023-05-01T06:10:28;10.77;;;4.18;;
41921;SDS011;27609;51.002;5.354;2023-05-01T06:12:53;7.55;;;4.78;;
41921;SDS011;27609;51.002;5.354;2023-05-01T06:15:19;5.20;;;4.53;;
41921;SDS011;27609;51.002;5.354;2023-05-01T06:17:45;7.28;;;5.13;;
41921;SDS011;27609;51.002;5.354;2023-05-01T06:20:11;8.18;;;4.50;;
41921;SDS011;27609;51.002;5.354;2023-05-01T06:22:38;7.55;;;5.13;;
41921;SDS011;27609;51.002;5.354;2023-05-01T06:25:03;7.28;;;4.88;;
41921;SDS011;27609;51.002;5.354;2023-05-01T06:27:31;6.32;;;5.13;;
41921;SDS011;27609;51.002;5.354;2023-05-01T06:29:56;10.43;;;6.22;;
41921;SDS011;27609;51.002;5.354;2023-05-01T06:32:22;8.98;;;6.03;;
41921;SDS011;27609;51.002;5.354;2023-05-01T06:34:48;7.90;;;5.45;;
41921;SDS011;27609;51.002;5.354;2023-05-01T06:37:13;7.32;;;5.30;;
41921;SDS011;27609;51.002;5.354;2023-05-01T06:39:39;16.17;;;5.97;;
41921;SDS011;27609;51.002;5.354;2023-05-01T06:42:04;9.48;;;5.53;;
41921;SDS011;27609;51.002;5.354;2023-05-01T06:44:31;8.35;;;5.80;;
41921;SDS011;27609;51.002;5.354;2023-05-01T06:46:57;9.23;;;5.68;;
41921;SDS011;27609;51.002;5.354;2023-05-01T06:49:25;8.75;;;5.80;;
41921;SDS011;27609;51.002;5.354;2023-05-01T06:51:51;6.90;;;5.82;;
41921;SDS011;27609;51.002;5.354;2023-05-01T06:54:17;8.70;;;6.22;;
41921;SDS011;27609;51.002;5.354;2023-05-01T06:56:43;7.53;;;5.72;;
41921;SDS011;27609;51.002;5.354;2023-05-01T06:59:08;8.07;;;5.75;;
41921;SDS011;27609;51.002;5.354;2023-05-01T07:01:34;10.73;;;6.03;;
41921;SDS011;27609;51.002;5.354;2023-05-01T07:04:00;12.90;;;6.00;;
41921;SDS011;27609;51.002;5.354;2023-05-01T07:06:25;9.10;;;6.18;;
41921;SDS011;27609;51.002;5.354;2023-05-01T07:08:51;8.02;;;5.75;;
41921;SDS011;27609;51.002;5.354;2023-05-01T07:11:17;8.25;;;6.07;;
41921;SDS011;27609;51.002;5.354;2023-05-01T07:13:43;8.98;;;6.50;;
41921;SDS011;27609;51.002;5.354;2023-05-01T07:16:08;7.97;;;6.20;;
41921;SDS011;27609;51.002;5.354;2023-05-01T07:18:34;6.60;;;5.97;;
41921;SDS011;27609;51.002;5.354;2023-05-01T07:21:01;6.97;;;5.68;;
41921;SDS011;27609;51.002;5.354;2023-05-01T07:23:27;9.30;;;6.15;;
41921;SDS011;27609;51.002;5.354;2023-05-01T07:25:53;7.88;;;6.43;;
41921;SDS011;27609;51.002;5.354;2023-05-01T07:28:19;8.18;;;6.63;;
41921;SDS011;27609;51.002;5.354;2023-05-01T07:30:45;6.55;;;5.82;;
41921;SDS011;27609;51.002;5.354;2023-05-01T07:33:11;9.02;;;6.40;;
41921;SDS011;27609;51.002;5.354;2023-05-01T07:35:37;6.60;;;5.88;;
41921;SDS011;27609;51.002;5.354;2023-05-01T07:38:02;9.57;;;6.10;;
41921;SDS011;27609;51.002;5.354;2023-05-01T07:40:28;7.43;;;6.40;;
41921;SDS011;27609;51.002;5.354;2023-05-01T07:42:56;7.18;;;6.45;;
41921;SDS011;27609;51.002;5.354;2023-05-01T07:45:22;8.45;;;6.97;;
41921;SDS011;27609;51.002;5.354;2023-05-01T07:47:48;8.40;;;7.00;;
41921;SDS011;27609;51.002;5.354;2023-05-01T07:50:14;9.27;;;6.43;;
41921;SDS011;27609;51.002;5.354;2023-05-01T07:52:41;9.20;;;6.32;;
41921;SDS011;27609;51.002;5.354;2023-05-01T07:55:06;9.77;;;6.60;;
41921;SDS011;27609;51.002;5.354;2023-05-01T07:57:33;8.85;;;6.05;;
41921;SDS011;27609;51.002;5.354;2023-05-01T07:59:59;10.95;;;6.10;;
41921;SDS011;27609;51.002;5.354;2023-05-01T08:02:25;9.45;;;5.88;;
41921;SDS011;27609;51.002;5.354;2023-05-01T08:04:51;6.40;;;5.80;;
41921;SDS011;27609;51.002;5.354;2023-05-01T08:07:16;7.85;;;5.88;;
41921;SDS011;27609;51.002;5.354;2023-05-01T08:09:42;8.68;;;6.53;;
41921;SDS011;27609;51.002;5.354;2023-05-01T08:12:08;9.75;;;6.45;;
41921;SDS011;27609;51.002;5.354;2023-05-01T08:14:33;9.55;;;5.57;;
41921;SDS011;27609;51.002;5.354;2023-05-01T08:16:59;6.30;;;5.20;;
41921;SDS011;27609;51.002;5.354;2023-05-01T08:19:25;6.07;;;5.47;;
41921;SDS011;27609;51.002;5.354;2023-05-01T08:21:51;7.40;;;5.57;;
41921;SDS011;27609;51.002;5.354;2023-05-01T08:24:17;6.70;;;5.28;;
41921;SDS011;27609;51.002;5.354;2023-05-01T08:26:43;6.57;;;5.25;;
41921;SDS011;27609;51.002;5.354;2023-05-01T08:29:09;7.00;;;5.63;;
41921;SDS011;27609;51.002;5.354;2023-05-01T08:31:35;6.82;;;5.25;;
41921;SDS011;27609;51.002;5.354;2023-05-01T08:34:02;6.80;;;5.57;;
41921;SDS011;27609;51.002;5.354;2023-05-01T08:36:28;8.55;;;6.20;;
41921;SDS011;27609;51.002;5.354;2023-05-01T08:38:55;6.80;;;5.70;;
41921;SDS011;27609;51.002;5.354;2023-05-01T08:41:21;5.40;;;4.53;;
41921;SDS011;27609;51.002;5.354;2023-05-01T08:43:47;8.25;;;4.63;;
41921;SDS011;27609;51.002;5.354;2023-05-01T08:48:58;5.25;;;4.75;;
41921;SDS011;27609;51.002;5.354;2023-05-01T08:51:24;6.40;;;4.50;;
41921;SDS011;27609;51.002;5.354;2023-05-01T08:53:51;6.30;;;4.63;;
41921;SDS011;27609;51.002;5.354;2023-05-01T08:56:20;7.27;;;5.50;;
41921;SDS011;27609;51.002;5.354;2023-05-01T08:58:48;6.72;;;5.18;;
41921;SDS011;27609;51.002;5.354;2023-05-01T09:01:14;4.95;;;4.40;;
41921;SDS011;27609;51.002;5.354;2023-05-01T09:03:41;6.82;;;4.30;;
41921;SDS011;27609;51.002;5.354;2023-05-01T09:06:08;5.30;;;4.85;;
41921;SDS011;27609;51.002;5.354;2023-05-01T09:08:35;5.53;;;4.07;;
41921;SDS011;27609;51.002;5.354;2023-05-01T09:11:01;6.20;;;4.32;;
41921;SDS011;27609;51.002;5.354;2023-05-01T09:13:27;6.40;;;4.35;;
41921;SDS011;27609;51.002;5.354;2023-05-01T09:15:54;5.80;;;3.80;;
41921;SDS011;27609;51.002;5.354;2023-05-01T09:18:19;6.45;;;4.07;;
41921;SDS011;27609;51.002;5.354;2023-05-01T09:20:45;6.47;;;3.97;;
41921;SDS011;27609;51.002;5.354;2023-05-01T09:23:11;5.32;;;4.25;;
41921;SDS011;27609;51.002;5.354;2023-05-01T09:25:37;4.43;;;3.45;;
41921;SDS011;27609;51.002;5.354;2023-05-01T09:28:03;4.35;;;3.67;;
41921;SDS011;27609;51.002;5.354;2023-05-01T09:30:37;4.32;;;3.75;;
41921;SDS011;27609;51.002;5.354;2023-05-01T09:33:13;8.38;;;4.00;;
41921;SDS011;27609;51.002;5.354;2023-05-01T09:35:47;6.55;;;3.90;;
41921;SDS011;27609;51.002;5.354;2023-05-01T09:38:18;4.55;;;3.60;;
41921;SDS011;27609;51.002;5.354;2023-05-01T09:40:45;11.23;;;4.03;;
41921;SDS011;27609;51.002;5.354;2023-05-01T09:43:11;6.72;;;4.40;;
41921;SDS011;27609;51.002;5.354;2023-05-01T09:45:37;6.13;;;4.45;;
41921;SDS011;27609;51.002;5.354;2023-05-01T09:48:10;6.20;;;5.25;;
41921;SDS011;27609;51.002;5.354;2023-05-01T09:50:37;13.63;;;7.85;;
41921;SDS011;27609;51.002;5.354;2023-05-01T09:53:06;9.75;;;7.30;;
41921;SDS011;27609;51.002;5.354;2023-05-01T09:55:32;11.30;;;6.57;;
41921;SDS011;27609;51.002;5.354;2023-05-01T09:57:58;7.43;;;4.95;;
41921;SDS011;27609;51.002;5.354;2023-05-01T10:00:24;5.65;;;4.68;;
41921;SDS011;27609;51.002;5.354;2023-05-01T10:02:51;5.72;;;4.18;;
41921;SDS011;27609;51.002;5.354;2023-05-01T10:05:17;8.50;;;6.63;;
41921;SDS011;27609;51.002;5.354;2023-05-01T10:08:00;8.40;;;6.55;;
41921;SDS011;27609;51.002;5.354;2023-05-01T10:10:27;9.15;;;6.53;;
41921;SDS011;27609;51.002;5.354;2023-05-01T10:12:53;7.65;;;5.47;;
41921;SDS011;27609;51.002;5.354;2023-05-01T10:15:19;8.15;;;6.43;;
41921;SDS011;27609;51.002;5.354;2023-05-01T10:17:45;6.38;;;4.18;;
41921;SDS011;27609;51.002;5.354;2023-05-01T10:20:16;6.35;;;3.92;;
41921;SDS011;27609;51.002;5.354;2023-05-01T10:22:41;5.32;;;4.05;;
41921;SDS011;27609;51.002;5.354;2023-05-01T10:25:08;4.85;;;4.18;;
41921;SDS011;27609;51.002;5.354;2023-05-01T10:27:39;6.47;;;4.13;;
41921;SDS011;27609;51.002;5.354;2023-05-01T10:30:05;7.28;;;4.15;;
41921;SDS011;27609;51.002;5.354;2023-05-01T10:32:32;5.43;;;3.88;;
41921;SDS011;27609;51.002;5.354;2023-05-01T10:35:13;4.30;;;3.90;;
41921;SDS011;27609;51.002;5.354;2023-05-01T10:37:47;5.00;;;4.57;;
41921;SDS011;27609;51.002;5.354;2023-05-01T10:43:45;9.50;;;4.95;;
41921;SDS011;27609;51.002;5.354;2023-05-01T10:46:38;7.70;;;3.97;;
41921;SDS011;27609;51.002;5.354;2023-05-01T10:53:46;5.13;;;4.60;;
41921;SDS011;27609;51.002;5.354;2023-05-01T11:01:36;7.57;;;5.80;;
41921;SDS011;27609;51.002;5.354;2023-05-01T11:04:46;6.80;;;5.57;;
41921;SDS011;27609;51.002;5.354;2023-05-01T11:09:38;11.43;;;5.78;;
41921;SDS011;27609;51.002;5.354;2023-05-01T11:12:05;7.68;;;5.15;;
41921;SDS011;27609;51.002;5.354;2023-05-01T11:20:07;7.32;;;4.80;;
41921;SDS011;27609;51.002;5.354;2023-05-01T11:22:37;9.20;;;4.78;;
41921;SDS011;27609;51.002;5.354;2023-05-01T11:25:16;7.70;;;3.83;;
41921;SDS011;27609;51.002;5.354;2023-05-01T11:27:53;6.95;;;4.00;;
41921;SDS011;27609;51.002;5.354;2023-05-01T11:30:20;7.53;;;4.75;;
41921;SDS011;27609;51.002;5.354;2023-05-01T11:32:46;8.98;;;3.83;;
41921;SDS011;27609;51.002;5.354;2023-05-01T11:35:23;9.50;;;4.20;;
41921;SDS011;27609;51.002;5.354;2023-05-01T11:37:52;6.32;;;4.50;;
41921;SDS011;27609;51.002;5.354;2023-05-01T11:40:25;9.60;;;5.32;;
41921;SDS011;27609;51.002;5.354;2023-05-01T11:42:59;8.00;;;5.70;;
41921;SDS011;27609;51.002;5.354;2023-05-01T11:45:26;13.23;;;7.03;;
41921;SDS011;27609;51.002;5.354;2023-05-01T11:47:52;8.75;;;5.82;;
41921;SDS011;27609;51.002;5.354;2023-05-01T11:50:18;9.93;;;6.00;;
41921;SDS011;27609;51.002;5.354;2023-05-01T11:52:49;9.27;;;6.53;;
41921;SDS011;27609;51.002;5.354;2023-05-01T11:55:19;10.30;;;6.78;;
41921;SDS011;27609;51.002;5.354;2023-05-01T11:57:54;11.25;;;6.60;;
41921;SDS011;27609;51.002;5.354;2023-05-01T12:00:41;10.25;;;6.57;;
41921;SDS011;27609;51.002;5.354;2023-05-01T12:03:13;9.77;;;6.50;;
41921;SDS011;27609;51.002;5.354;2023-05-01T12:05:40;9.95;;;6.38;;
41921;SDS011;27609;51.002;5.354;2023-05-01T12:08:14;14.10;;;7.65;;
41921;SDS011;27609;51.002;5.354;2023-05-01T12:10:48;9.15;;;8.07;;
41921;SDS011;27609;51.002;5.354;2023-05-01T12:13:19;13.10;;;8.18;;
41921;SDS011;27609;51.002;5.354;2023-05-01T12:15:46;9.88;;;6.95;;
41921;SDS011;27609;51.002;5.354;2023-05-01T12:18:14;9.85;;;7.57;;
41921;SDS011;27609;51.002;5.354;2023-05-01T12:20:42;10.35;;;7.80;;
41921;SDS011;27609;51.002;5.354;2023-05-01T12:23:09;10.60;;;7.85;;
41921;SDS011;27609;51.002;5.354;2023-05-01T12:25:36;10.07;;;8.25;;
41921;SDS011;27609;51.002;5.354;2023-05-01T12:28:11;11.82;;;8.93;;
41921;SDS011;27609;51.002;5.354;2023-05-01T12:30:42;12.98;;;8.30;;
41921;SDS011;27609;51.002;5.354;2023-05-01T12:33:10;11.30;;;8.68;;
41921;SDS011;27609;51.002;5.354;2023-05-01T12:35:37;11.38;;;8.93;;
41921;SDS011;27609;51.002;5.354;2023-05-01T12:40:51;11.18;;;9.98;;
41921;SDS011;27609;51.002;5.354;2023-05-01T12:43:33;13.45;;;10.38;;
41921;SDS011;27609;51.002;5.354;2023-05-01T12:46:01;13.63;;;10.20;;
41921;SDS011;27609;51.002;5.354;2023-05-01T12:48:28;16.73;;;10.50;;
41921;SDS011;27609;51.002;5.354;2023-05-01T12:50:59;14.05;;;9.75;;
41921;SDS011;27609;51.002;5.354;2023-05-01T12:53:25;10.18;;;9.13;;
41921;SDS011;27609;51.002;5.354;2023-05-01T12:55:53;10.38;;;9.38;;
41921;SDS011;27609;51.002;5.354;2023-05-01T12:58:22;15.57;;;9.32;;
41921;SDS011;27609;51.002;5.354;2023-05-01T13:00:59;9.60;;;8.55;;
41921;SDS011;27609;51.002;5.354;2023-05-01T13:03:25;11.52;;;7.75;;
41921;SDS011;27609;51.002;5.354;2023-05-01T13:05:56;9.93;;;6.88;;
41921;SDS011;27609;51.002;5.354;2023-05-01T13:08:30;6.78;;;6.15;;
41921;SDS011;27609;51.002;5.354;2023-05-01T13:10:58;10.85;;;7.07;;
41921;SDS011;27609;51.002;5.354;2023-05-01T13:13:26;6.97;;;4.63;;
41921;SDS011;27609;51.002;5.354;2023-05-01T13:16:01;7.35;;;3.72;;
41921;SDS011;27609;51.002;5.354;2023-05-01T13:18:38;9.27;;;3.88;;
41921;SDS011;27609;51.002;5.354;2023-05-01T13:21:14;4.28;;;3.88;;
41921;SDS011;27609;51.002;5.354;2023-05-01T13:23:51;4.32;;;3.30;;
41921;SDS011;27609;51.002;5.354;2023-05-01T13:26:28;4.90;;;3.55;;
41921;SDS011;27609;51.002;5.354;2023-05-01T13:28:56;6.00;;;3.17;;
41921;SDS011;27609;51.002;5.354;2023-05-01T13:31:24;6.80;;;3.45;;
41921;SDS011;27609;51.002;5.354;2023-05-01T13:33:50;4.45;;;3.45;;
41921;SDS011;27609;51.002;5.354;2023-05-01T13:36:17;3.92;;;2.97;;
41921;SDS011;27609;51.002;5.354;2023-05-01T13:38:49;4.03;;;3.33;;
41921;SDS011;27609;51.002;5.354;2023-05-01T13:41:18;3.97;;;3.05;;
41921;SDS011;27609;51.002;5.354;2023-05-01T13:43:45;8.10;;;3.60;;
41921;SDS011;27609;51.002;5.354;2023-05-01T13:46:12;5.50;;;3.55;;
41921;SDS011;27609;51.002;5.354;2023-05-01T13:48:39;7.43;;;3.65;;
41921;SDS011;27609;51.002;5.354;2023-05-01T13:51:09;4.93;;;3.35;;
41921;SDS011;27609;51.002;5.354;2023-05-01T13:53:40;5.68;;;4.15;;
41921;SDS011;27609;51.002;5.354;2023-05-01T13:56:09;6.10;;;3.85;;
41921;SDS011;27609;51.002;5.354;2023-05-01T13:58:37;5.50;;;3.97;;
41921;SDS011;27609;51.002;5.354;2023-05-01T14:01:05;5.03;;;3.95;;
41921;SDS011;27609;51.002;5.354;2023-05-01T14:03:41;9.60;;;4.07;;
41921;SDS011;27609;51.002;5.354;2023-05-01T14:06:08;5.45;;;3.10;;
41921;SDS011;27609;51.002;5.354;2023-05-01T14:08:41;3.72;;;3.42;;
41921;SDS011;27609;51.002;5.354;2023-05-01T14:11:07;4.82;;;3.90;;
41921;SDS011;27609;51.002;5.354;2023-05-01T14:13:40;4.30;;;3.78;;
41921;SDS011;27609;51.002;5.354;2023-05-01T14:16:08;5.07;;;3.58;;
41921;SDS011;27609;51.002;5.354;2023-05-01T14:18:45;6.80;;;4.63;;
41921;SDS011;27609;51.002;5.354;2023-05-01T14:21:15;6.15;;;3.92;;
41921;SDS011;27609;51.002;5.354;2023-05-01T14:23:42;7.10;;;3.88;;
41921;SDS011;27609;51.002;5.354;2023-05-01T14:26:09;8.38;;;4.22;;
41921;SDS011;27609;51.002;5.354;2023-05-01T14:28:42;7.03;;;4.07;;
41921;SDS011;27609;51.002;5.354;2023-05-01T14:31:14;6.45;;;4.60;;
41921;SDS011;27609;51.002;5.354;2023-05-01T14:33:48;5.85;;;4.03;;
41921;SDS011;27609;51.002;5.354;2023-05-01T14:36:33;4.70;;;4.07;;
41921;SDS011;27609;51.002;5.354;2023-05-01T14:38:59;8.27;;;4.20;;
41921;SDS011;27609;51.002;5.354;2023-05-01T14:41:27;9.40;;;4.35;;
41921;SDS011;27609;51.002;5.354;2023-05-01T14:43:53;7.15;;;4.70;;
41921;SDS011;27609;51.002;5.354;2023-05-01T14:46:29;6.07;;;4.70;;
41921;SDS011;27609;51.002;5.354;2023-05-01T14:49:00;5.25;;;4.72;;
41921;SDS011;27609;51.002;5.354;2023-05-01T14:51:27;7.18;;;5.47;;
41921;SDS011;27609;51.002;5.354;2023-05-01T14:53:55;5.43;;;4.93;;
41921;SDS011;27609;51.002;5.354;2023-05-01T14:56:20;11.07;;;4.57;;
41921;SDS011;27609;51.002;5.354;2023-05-01T14:58:47;6.85;;;5.20;;
41921;SDS011;27609;51.002;5.354;2023-05-01T15:01:13;9.13;;;6.15;;
41921;SDS011;27609;51.002;5.354;2023-05-01T15:03:39;9.57;;;6.47;;
41921;SDS011;27609;51.002;5.354;2023-05-01T15:06:07;9.52;;;5.85;;
41921;SDS011;27609;51.002;5.354;2023-05-01T15:08:33;8.23;;;7.47;;
41921;SDS011;27609;51.002;5.354;2023-05-01T15:10:59;9.20;;;8.05;;
41921;SDS011;27609;51.002;5.354;2023-05-01T15:13:25;11.40;;;8.25;;
41921;SDS011;27609;51.002;5.354;2023-05-01T15:15:51;10.82;;;9.18;;
41921;SDS011;27609;51.002;5.354;2023-05-01T15:18:16;13.23;;;7.88;;
41921;SDS011;27609;51.002;5.354;2023-05-01T15:20:43;7.88;;;6.53;;
41921;SDS011;27609;51.002;5.354;2023-05-01T15:23:08;7.10;;;6.10;;
41921;SDS011;27609;51.002;5.354;2023-05-01T15:25:37;9.38;;;7.57;;
41921;SDS011;27609;51.002;5.354;2023-05-01T15:28:02;8.57;;;7.72;;
41921;SDS011;27609;51.002;5.354;2023-05-01T15:30:28;11.18;;;8.35;;
41921;SDS011;27609;51.002;5.354;2023-05-01T15:32:54;9.82;;;8.40;;
41921;SDS011;27609;51.002;5.354;2023-05-01T15:35:20;10.85;;;9.32;;